sensor_id;sensor_type;location;lat;lon;timestamp;pressure;altitude;pressure_sealevel;temperature;humidity
45441;BME280;31189;38.790;-77.084;2023-09-18T00:01:32;100908.51;;;25.28;54.23
45441;BME280;31189;38.790;-77.084;2023-09-18T00:03:58;100912.19;;;25.00;54.15
45441;BME280;31189;38.790;-77.084;2023-09-18T00:06:23;100909.21;;;24.79;54.42
45441;BME280;31189;38.790;-77.084;2023-09-18T00:08:49;100910.67;;;24.73;54.01
45441;BME280;31189;38.790;-77.084;2023-09-18T00:11:14;100905.23;;;25.27;53.86
45441;BME280;31189;38.790;-77.084;2023-09-18T00:13:40;100908.29;;;25.33;53.26
45441;BME280;31189;38.790;-77.084;2023-09-18T00:16:06;100907.57;;;24.89;54.40
45441;BME280;31189;38.790;-77.084;2023-09-18T00:18:31;100910.85;;;25.45;53.04
45441;BME280;31189;38.790;-77.084;2023-09-18T00:20:57;100912.99;;;24.71;54.18
45441;BME280;31189;38.790;-77.084;2023-09-18T00:23:22;100914.09;;;25.54;52.60
45441;BME280;31189;38.790;-77.084;2023-09-18T00:25:48;100906.36;;;25.64;51.65
45441;BME280;31189;38.790;-77.084;2023-09-18T00:28:14;100903.42;;;26.11;52.01
45441;BME280;31189;38.790;-77.084;2023-09-18T00:30:44;100900.13;;;25.78;52.19
45441;BME280;31189;38.790;-77.084;2023-09-18T00:33:05;100900.26;;;26.09;52.03
45441;BME280;31189;38.790;-77.084;2023-09-18T00:35:30;100893.40;;;26.10;51.85
45441;BME280;31189;38.790;-77.084;2023-09-18T00:37:56;100889.94;;;26.38;52.57
45441;BME280;31189;38.790;-77.084;2023-09-18T00:40:22;100899.17;;;26.06;52.90
45441;BME280;31189;38.790;-77.084;2023-09-18T00:42:47;100897.81;;;25.94;52.77
45441;BME280;31189;38.790;-77.084;2023-09-18T00:45:12;100891.29;;;26.29;52.33
45441;BME280;31189;38.790;-77.084;2023-09-18T00:47:38;100889.23;;;26.04;52.81
45441;BME280;31189;38.790;-77.084;2023-09-18T00:50:05;100896.07;;;26.32;52.92
45441;BME280;31189;38.790;-77.084;2023-09-18T00:52:30;100898.19;;;26.16;52.80
45441;BME280;31189;38.790;-77.084;2023-09-18T00:54:55;100897.76;;;25.71;52.54
45441;BME280;31189;38.790;-77.084;2023-09-18T00:57:21;100891.32;;;25.68;53.44
45441;BME280;31189;38.790;-77.084;2023-09-18T00:59:46;100884.93;;;25.95;53.10
45441;BME280;31189;38.790;-77.084;2023-09-18T01:02:12;100886.86;;;26.09;52.77
45441;BME280;31189;38.790;-77.084;2023-09-18T01:04:38;100893.87;;;25.77;52.28
45441;BME280;31189;38.790;-77.084;2023-09-18T01:07:03;100897.88;;;26.01;52.12
45441;BME280;31189;38.790;-77.084;2023-09-18T01:09:28;100899.08;;;25.99;52.43
45441;BME280;31189;38.790;-77.084;2023-09-18T01:11:59;100898.60;;;25.60;53.29
45441;BME280;31189;38.790;-77.084;2023-09-18T01:14:23;100898.51;;;25.62;53.49
45441;BME280;31189;38.790;-77.084;2023-09-18T01:16:50;100906.09;;;25.46;54.80
45441;BME280;31189;38.790;-77.084;2023-09-18T01:19:10;100910.30;;;25.61;55.02
45441;BME280;31189;38.790;-77.084;2023-09-18T01:21:36;100912.21;;;25.31;55.12
45441;BME280;31189;38.790;-77.084;2023-09-18T01:24:01;100915.65;;;25.95;53.40
45441;BME280;31189;38.790;-77.084;2023-09-18T01:26:27;100923.74;;;25.04;55.02
45441;BME280;31189;38.790;-77.084;2023-09-18T01:28:53;100925.37;;;24.95;55.81
45441;BME280;31189;38.790;-77.084;2023-09-18T01:31:18;100920.23;;;25.90;53.26
45441;BME280;31189;38.790;-77.084;2023-09-18T01:33:44;100923.24;;;25.86;52.87
45441;BME280;31189;38.790;-77.084;2023-09-18T01:36:10;100921.85;;;25.92;52.09
45441;BME280;31189;38.790;-77.084;2023-09-18T01:38:36;100923.59;;;25.53;52.00
45441;BME280;31189;38.790;-77.084;2023-09-18T01:41:01;100927.94;;;25.21;53.06
45441;BME280;31189;38.790;-77.084;2023-09-18T01:43:27;100926.99;;;25.56;51.55
45441;BME280;31189;38.790;-77.084;2023-09-18T01:45:52;100923.09;;;25.20;52.52
45441;BME280;31189;38.790;-77.084;2023-09-18T01:48:17;100928.61;;;25.20;52.66
45441;BME280;31189;38.790;-77.084;2023-09-18T01:50:43;100925.29;;;24.99;52.17
45441;BME280;31189;38.790;-77.084;2023-09-18T01:53:08;100924.62;;;24.72;52.75
45441;BME280;31189;38.790;-77.084;2023-09-18T01:55:34;100925.22;;;24.49;53.19
45441;BME280;31189;38.790;-77.084;2023-09-18T01:58:00;100925.72;;;25.19;52.36
45441;BME280;31189;38.790;-77.084;2023-09-18T02:00:25;100923.31;;;24.08;53.53
45441;BME280;31189;38.790;-77.084;2023-09-18T02:02:51;100915.23;;;24.93;53.10
45441;BME280;31189;38.790;-77.084;2023-09-18T02:05:16;100917.12;;;24.32;53.89
45441;BME280;31189;38.790;-77.084;2023-09-18T02:07:42;100914.12;;;24.93;52.87
45441;BME280;31189;38.790;-77.084;2023-09-18T02:10:08;100915.74;;;24.69;54.39
45441;BME280;31189;38.790;-77.084;2023-09-18T02:12:33;100908.08;;;24.93;54.02
45441;BME280;31189;38.790;-77.084;2023-09-18T02:14:59;100903.06;;;25.13;53.70
45441;BME280;31189;38.790;-77.084;2023-09-18T02:17:24;100900.55;;;25.21;52.99
45441;BME280;31189;38.790;-77.084;2023-09-18T02:19:50;100903.52;;;24.72;54.42
45441;BME280;31189;38.790;-77.084;2023-09-18T02:22:16;100908.45;;;23.83;55.28
45441;BME280;31189;38.790;-77.084;2023-09-18T02:24:41;100909.77;;;23.97;55.05
45441;BME280;31189;38.790;-77.084;2023-09-18T02:27:07;100914.94;;;24.12;54.58
45441;BME280;31189;38.790;-77.084;2023-09-18T02:29:33;100917.01;;;23.61;55.13
45441;BME280;31189;38.790;-77.084;2023-09-18T02:31:58;100922.98;;;22.66;55.62
45441;BME280;31189;38.790;-77.084;2023-09-18T02:34:24;100919.01;;;23.50;54.73
45441;BME280;31189;38.790;-77.084;2023-09-18T02:36:49;100913.50;;;23.61;53.98
45441;BME280;31189;38.790;-77.084;2023-09-18T02:39:15;100916.45;;;23.33;53.86
45441;BME280;31189;38.790;-77.084;2023-09-18T02:41:41;100915.67;;;22.33;56.02
45441;BME280;31189;38.790;-77.084;2023-09-18T02:44:06;100910.03;;;23.09;54.59
45441;BME280;31189;38.790;-77.084;2023-09-18T02:46:32;100902.71;;;23.24;54.75
45441;BME280;31189;38.790;-77.084;2023-09-18T02:48:57;100903.74;;;23.42;54.03
45441;BME280;31189;38.790;-77.084;2023-09-18T02:51:23;100904.34;;;23.04;54.98
45441;BME280;31189;38.790;-77.084;2023-09-18T02:53:48;100909.28;;;22.97;54.35
45441;BME280;31189;38.790;-77.084;2023-09-18T02:56:14;100908.33;;;22.86;55.94
45441;BME280;31189;38.790;-77.084;2023-09-18T02:58:40;100899.37;;;23.20;54.44
45441;BME280;31189;38.790;-77.084;2023-09-18T03:01:07;100896.08;;;21.99;56.09
45441;BME280;31189;38.790;-77.084;2023-09-18T03:03:31;100895.16;;;22.39;55.57
45441;BME280;31189;38.790;-77.084;2023-09-18T03:06:01;100887.64;;;23.37;53.46
45441;BME280;31189;38.790;-77.084;2023-09-18T03:08:22;100883.21;;;22.92;53.50
45441;BME280;31189;38.790;-77.084;2023-09-18T03:10:48;100884.38;;;23.49;52.65
45441;BME280;31189;38.790;-77.084;2023-09-18T03:13:14;100888.72;;;23.19;52.55
45441;BME280;31189;38.790;-77.084;2023-09-18T03:15:39;100886.00;;;23.06;53.23
45441;BME280;31189;38.790;-77.084;2023-09-18T03:18:06;100886.68;;;23.27;53.08
45441;BME280;31189;38.790;-77.084;2023-09-18T03:20:31;100894.26;;;23.43;52.01
45441;BME280;31189;38.790;-77.084;2023-09-18T03:22:57;100889.74;;;24.12;51.05
45441;BME280;31189;38.790;-77.084;2023-09-18T03:25:22;100891.20;;;24.10;51.37
45441;BME280;31189;38.790;-77.084;2023-09-18T03:27:47;100895.27;;;23.44;51.64
45441;BME280;31189;38.790;-77.084;2023-09-18T03:30:13;100895.29;;;23.06;52.89
45441;BME280;31189;38.790;-77.084;2023-09-18T03:32:38;100896.07;;;24.06;51.57
45441;BME280;31189;38.790;-77.084;2023-09-18T03:35:04;100893.47;;;24.04;51.18
45441;BME280;31189;38.790;-77.084;2023-09-18T03:37:30;100887.82;;;23.84;51.22
45441;BME280;31189;38.790;-77.084;2023-09-18T03:39:55;100886.22;;;23.72;51.54
45441;BME280;31189;38.790;-77.084;2023-09-18T03:42:21;100880.95;;;23.87;50.72
45441;BME280;31189;38.790;-77.084;2023-09-18T03:44:46;100879.54;;;24.22;51.16
45441;BME280;31189;38.790;-77.084;2023-09-18T03:47:12;100881.02;;;24.02;51.08
45441;BME280;31189;38.790;-77.084;2023-09-18T03:49:37;100880.68;;;23.95;50.27
45441;BME280;31189;38.790;-77.084;2023-09-18T03:52:03;100880.78;;;24.15;50.15
45441;BME280;31189;38.790;-77.084;2023-09-18T03:54:28;100877.80;;;24.26;51.55
45441;BME280;31189;38.790;-77.084;2023-09-18T03:56:54;100876.17;;;24.13;51.19
45441;BME280;31189;38.790;-77.084;2023-09-18T03:59:20;100874.88;;;24.43;50.10
45441;BME280;31189;38.790;-77.084;2023-09-18T04:01:45;100867.45;;;24.46;50.23
45441;BME280;31189;38.790;-77.084;2023-09-18T04:04:11;100861.80;;;23.84;51.21
45441;BME280;31189;38.790;-77.084;2023-09-18T04:06:41;100863.09;;;23.63;51.75
45441;BME280;31189;38.790;-77.084;2023-09-18T04:09:04;100858.92;;;24.40;49.93
45441;BME280;31189;38.790;-77.084;2023-09-18T04:11:28;100852.43;;;24.50;49.57
45441;BME280;31189;38.790;-77.084;2023-09-18T04:13:53;100851.33;;;24.64;51.44
45441;BME280;31189;38.790;-77.084;2023-09-18T04:16:19;100852.02;;;24.35;52.46
45441;BME280;31189;38.790;-77.084;2023-09-18T04:18:45;100854.58;;;24.18;52.63
45441;BME280;31189;38.790;-77.084;2023-09-18T04:21:10;100851.56;;;24.32;52.56
45441;BME280;31189;38.790;-77.084;2023-09-18T04:23:36;100848.64;;;24.45;52.37
45441;BME280;31189;38.790;-77.084;2023-09-18T04:26:01;100851.97;;;24.65;51.97
45441;BME280;31189;38.790;-77.084;2023-09-18T04:28:27;100850.60;;;24.64;51.31
45441;BME280;31189;38.790;-77.084;2023-09-18T04:30:52;100844.86;;;24.24;51.70
45441;BME280;31189;38.790;-77.084;2023-09-18T04:33:18;100833.08;;;24.65;51.70
45441;BME280;31189;38.790;-77.084;2023-09-18T04:35:43;100830.72;;;24.09;52.57
45441;BME280;31189;38.790;-77.084;2023-09-18T04:38:09;100826.90;;;24.49;51.70
45441;BME280;31189;38.790;-77.084;2023-09-18T04:40:35;100827.39;;;24.26;51.74
45441;BME280;31189;38.790;-77.084;2023-09-18T04:43:00;100826.32;;;24.12;51.73
45441;BME280;31189;38.790;-77.084;2023-09-18T04:45:26;100823.28;;;23.86;51.99
45441;BME280;31189;38.790;-77.084;2023-09-18T04:47:51;100813.73;;;24.44;51.65
45441;BME280;31189;38.790;-77.084;2023-09-18T04:50:17;100814.82;;;24.15;51.34
45441;BME280;31189;38.790;-77.084;2023-09-18T04:52:43;100819.03;;;24.15;51.44
45441;BME280;31189;38.790;-77.084;2023-09-18T04:55:09;100818.26;;;24.32;51.39
45441;BME280;31189;38.790;-77.084;2023-09-18T04:57:34;100816.30;;;24.00;51.77
45441;BME280;31189;38.790;-77.084;2023-09-18T05:00:00;100811.94;;;24.46;51.01
45441;BME280;31189;38.790;-77.084;2023-09-18T05:02:25;100817.20;;;23.82;51.22
45441;BME280;31189;38.790;-77.084;2023-09-18T05:04:51;100814.73;;;23.92;52.24
45441;BME280;31189;38.790;-77.084;2023-09-18T05:07:16;100811.68;;;24.04;51.79
45441;BME280;31189;38.790;-77.084;2023-09-18T05:09:42;100806.10;;;24.29;50.43
45441;BME280;31189;38.790;-77.084;2023-09-18T05:12:09;100803.79;;;24.41;50.50
45441;BME280;31189;38.790;-77.084;2023-09-18T05:14:33;100804.55;;;24.54;50.43
45441;BME280;31189;38.790;-77.084;2023-09-18T05:16:59;100804.60;;;24.62;49.80
45441;BME280;31189;38.790;-77.084;2023-09-18T05:19:24;100806.96;;;24.33;49.74
45441;BME280;31189;38.790;-77.084;2023-09-18T05:21:50;100808.18;;;24.28;50.57
45441;BME280;31189;38.790;-77.084;2023-09-18T05:24:16;100801.96;;;24.52;49.89
45441;BME280;31189;38.790;-77.084;2023-09-18T05:26:41;100800.57;;;24.09;50.28
45441;BME280;31189;38.790;-77.084;2023-09-18T05:29:07;100793.73;;;24.66;49.74
45441;BME280;31189;38.790;-77.084;2023-09-18T05:31:33;100794.04;;;24.34;49.86
45441;BME280;31189;38.790;-77.084;2023-09-18T05:33:59;100795.79;;;24.38;50.49
45441;BME280;31189;38.790;-77.084;2023-09-18T05:36:24;100796.82;;;24.16;50.31
45441;BME280;31189;38.790;-77.084;2023-09-18T05:38:50;100796.49;;;24.45;50.35
45441;BME280;31189;38.790;-77.084;2023-09-18T05:41:15;100791.12;;;24.46;50.31
45441;BME280;31189;38.790;-77.084;2023-09-18T05:43:41;100786.28;;;24.49;50.90
45441;BME280;31189;38.790;-77.084;2023-09-18T05:46:06;100781.26;;;24.53;51.04
45441;BME280;31189;38.790;-77.084;2023-09-18T05:48:32;100781.40;;;23.90;52.68
45441;BME280;31189;38.790;-77.084;2023-09-18T05:50:58;100779.07;;;24.06;52.08
45441;BME280;31189;38.790;-77.084;2023-09-18T05:53:23;100781.57;;;24.17;52.40
45441;BME280;31189;38.790;-77.084;2023-09-18T05:55:49;100777.94;;;23.90;52.40
45441;BME280;31189;38.790;-77.084;2023-09-18T05:58:14;100772.24;;;23.86;53.54
45441;BME280;31189;38.790;-77.084;2023-09-18T06:00:40;100774.37;;;23.48;53.96
45441;BME280;31189;38.790;-77.084;2023-09-18T06:03:05;100769.59;;;23.83;53.29
45441;BME280;31189;38.790;-77.084;2023-09-18T06:05:31;100768.64;;;24.55;52.42
45441;BME280;31189;38.790;-77.084;2023-09-18T06:07:57;100763.73;;;23.93;52.92
45441;BME280;31189;38.790;-77.084;2023-09-18T06:10:22;100758.78;;;24.00;52.45
45441;BME280;31189;38.790;-77.084;2023-09-18T06:12:48;100756.79;;;24.22;51.41
45441;BME280;31189;38.790;-77.084;2023-09-18T06:15:13;100754.29;;;23.92;51.90
45441;BME280;31189;38.790;-77.084;2023-09-18T06:17:40;100755.79;;;24.28;51.41
45441;BME280;31189;38.790;-77.084;2023-09-18T06:20:05;100754.37;;;24.67;50.41
45441;BME280;31189;38.790;-77.084;2023-09-18T06:22:30;100753.74;;;24.34;50.83
45441;BME280;31189;38.790;-77.084;2023-09-18T06:24:55;100752.24;;;24.47;50.98
45441;BME280;31189;38.790;-77.084;2023-09-18T06:27:21;100748.06;;;24.66;50.93
45441;BME280;31189;38.790;-77.084;2023-09-18T06:29:47;100745.52;;;24.25;51.81
45441;BME280;31189;38.790;-77.084;2023-09-18T06:32:13;100742.22;;;24.30;52.12
45441;BME280;31189;38.790;-77.084;2023-09-18T06:34:38;100736.49;;;23.75;53.24
45441;BME280;31189;38.790;-77.084;2023-09-18T06:37:04;100738.87;;;24.02;53.77
45441;BME280;31189;38.790;-77.084;2023-09-18T06:39:29;100737.83;;;24.02;53.99
45441;BME280;31189;38.790;-77.084;2023-09-18T06:41:55;100741.46;;;23.94;53.73
45441;BME280;31189;38.790;-77.084;2023-09-18T06:44:20;100745.39;;;22.07;56.62
45441;BME280;31189;38.790;-77.084;2023-09-18T06:46:46;100741.17;;;23.72;52.35
45441;BME280;31189;38.790;-77.084;2023-09-18T06:49:11;100735.80;;;23.93;53.30
45441;BME280;31189;38.790;-77.084;2023-09-18T06:51:37;100725.36;;;23.82;53.91
45441;BME280;31189;38.790;-77.084;2023-09-18T06:54:03;100714.55;;;23.83;53.00
45441;BME280;31189;38.790;-77.084;2023-09-18T06:56:28;100713.06;;;22.65;57.58
45441;BME280;31189;38.790;-77.084;2023-09-18T06:58:54;100707.42;;;22.56;54.77
45441;BME280;31189;38.790;-77.084;2023-09-18T07:01:20;100703.24;;;22.92;54.60
45441;BME280;31189;38.790;-77.084;2023-09-18T07:03:45;100704.56;;;23.43;53.50
45441;BME280;31189;38.790;-77.084;2023-09-18T07:06:11;100699.28;;;23.60;52.96
45441;BME280;31189;38.790;-77.084;2023-09-18T07:08:36;100697.70;;;23.14;53.92
45441;BME280;31189;38.790;-77.084;2023-09-18T07:11:02;100696.23;;;23.32;52.55
45441;BME280;31189;38.790;-77.084;2023-09-18T07:13:28;100703.10;;;23.67;51.99
45441;BME280;31189;38.790;-77.084;2023-09-18T07:15:53;100709.10;;;23.38;52.06
45441;BME280;31189;38.790;-77.084;2023-09-18T07:18:19;100716.21;;;24.25;50.17
45441;BME280;31189;38.790;-77.084;2023-09-18T07:20:45;100718.72;;;24.07;49.47
45441;BME280;31189;38.790;-77.084;2023-09-18T07:23:10;100715.29;;;24.21;50.40
45441;BME280;31189;38.790;-77.084;2023-09-18T07:25:36;100707.11;;;24.25;50.87
45441;BME280;31189;38.790;-77.084;2023-09-18T07:28:01;100698.76;;;24.08;51.24
45441;BME280;31189;38.790;-77.084;2023-09-18T07:30:27;100691.98;;;24.22;50.99
45441;BME280;31189;38.790;-77.084;2023-09-18T07:32:54;100691.06;;;24.19;50.89
45441;BME280;31189;38.790;-77.084;2023-09-18T07:35:18;100692.67;;;24.23;50.49
45441;BME280;31189;38.790;-77.084;2023-09-18T07:37:44;100695.40;;;24.24;50.68
45441;BME280;31189;38.790;-77.084;2023-09-18T07:40:10;100695.38;;;23.79;51.50
45441;BME280;31189;38.790;-77.084;2023-09-18T07:42:35;100696.02;;;22.82;53.90
45441;BME280;31189;38.790;-77.084;2023-09-18T07:45:00;100688.84;;;23.76;51.98
45441;BME280;31189;38.790;-77.084;2023-09-18T07:47:26;100690.59;;;22.70;55.09
45441;BME280;31189;38.790;-77.084;2023-09-18T07:49:52;100694.10;;;23.29;53.35
45441;BME280;31189;38.790;-77.084;2023-09-18T07:52:17;100686.82;;;23.48;52.63
45441;BME280;31189;38.790;-77.084;2023-09-18T07:54:43;100679.39;;;23.44;52.35
45441;BME280;31189;38.790;-77.084;2023-09-18T07:57:08;100680.45;;;23.75;53.04
45441;BME280;31189;38.790;-77.084;2023-09-18T07:59:34;100680.17;;;23.42;53.80
45441;BME280;31189;38.790;-77.084;2023-09-18T08:01:59;100684.93;;;23.06;53.73
45441;BME280;31189;38.790;-77.084;2023-09-18T08:04:25;100686.36;;;22.73;54.85
45441;BME280;31189;38.790;-77.084;2023-09-18T08:06:51;100680.23;;;21.85;57.81
45441;BME280;31189;38.790;-77.084;2023-09-18T08:09:16;100672.82;;;22.63;56.95
45441;BME280;31189;38.790;-77.084;2023-09-18T08:11:42;100671.51;;;22.03;56.94
45441;BME280;31189;38.790;-77.084;2023-09-18T08:14:08;100669.31;;;22.67;55.99
45441;BME280;31189;38.790;-77.084;2023-09-18T08:16:33;100666.05;;;21.63;58.02
45441;BME280;31189;38.790;-77.084;2023-09-18T08:19:00;100663.55;;;21.32;60.79
45441;BME280;31189;38.790;-77.084;2023-09-18T08:21:24;100663.34;;;22.09;59.17
45441;BME280;31189;38.790;-77.084;2023-09-18T08:23:50;100664.24;;;21.68;58.96
45441;BME280;31189;38.790;-77.084;2023-09-18T08:26:16;100665.55;;;22.43;56.30
45441;BME280;31189;38.790;-77.084;2023-09-18T08:28:41;100671.75;;;21.65;58.70
45441;BME280;31189;38.790;-77.084;2023-09-18T08:31:07;100671.45;;;21.46;59.87
45441;BME280;31189;38.790;-77.084;2023-09-18T08:33:33;100677.29;;;22.53;57.53
45441;BME280;31189;38.790;-77.084;2023-09-18T08:35:58;100680.79;;;21.56;58.48
45441;BME280;31189;38.790;-77.084;2023-09-18T08:38:24;100679.25;;;20.72;61.22
45441;BME280;31189;38.790;-77.084;2023-09-18T08:40:49;100679.68;;;21.52;60.44
45441;BME280;31189;38.790;-77.084;2023-09-18T08:43:15;100680.09;;;21.95;59.21
45441;BME280;31189;38.790;-77.084;2023-09-18T08:45:45;100685.08;;;22.54;57.26
45441;BME280;31189;38.790;-77.084;2023-09-18T08:48:06;100698.31;;;23.07;55.24
45441;BME280;31189;38.790;-77.084;2023-09-18T08:50:33;100705.92;;;22.60;55.17
45441;BME280;31189;38.790;-77.084;2023-09-18T08:52:58;100705.06;;;22.20;56.48
45441;BME280;31189;38.790;-77.084;2023-09-18T08:55:24;100703.19;;;23.03;54.86
45441;BME280;31189;38.790;-77.084;2023-09-18T08:57:49;100705.42;;;22.56;55.69
45441;BME280;31189;38.790;-77.084;2023-09-18T09:00:14;100709.55;;;21.99;57.90
45441;BME280;31189;38.790;-77.084;2023-09-18T09:02:40;100701.23;;;22.09;56.25
45441;BME280;31189;38.790;-77.084;2023-09-18T09:05:06;100698.77;;;22.24;56.76
45441;BME280;31189;38.790;-77.084;2023-09-18T09:07:31;100693.85;;;22.91;55.79
45441;BME280;31189;38.790;-77.084;2023-09-18T09:09:57;100690.43;;;22.23;55.69
45441;BME280;31189;38.790;-77.084;2023-09-18T09:17:18;100686.13;;;21.71;57.98
45441;BME280;31189;38.790;-77.084;2023-09-18T09:19:39;100688.62;;;23.17;54.66
45441;BME280;31189;38.790;-77.084;2023-09-18T09:22:05;100690.82;;;22.78;54.24
45441;BME280;31189;38.790;-77.084;2023-09-18T09:24:38;100691.13;;;23.13;53.47
45441;BME280;31189;38.790;-77.084;2023-09-18T09:27:00;100690.85;;;21.71;56.83
45441;BME280;31189;38.790;-77.084;2023-09-18T09:29:22;100694.83;;;21.88;55.93
45441;BME280;31189;38.790;-77.084;2023-09-18T09:31:47;100696.73;;;21.52;58.32
45441;BME280;31189;38.790;-77.084;2023-09-18T09:36:51;100707.36;;;22.28;57.04
45441;BME280;31189;38.790;-77.084;2023-09-18T09:39:04;100707.18;;;20.90;59.66
45441;BME280;31189;38.790;-77.084;2023-09-18T09:41:31;100708.25;;;16.91;74.82
45441;BME280;31189;38.790;-77.084;2023-09-18T09:43:55;100712.67;;;18.37;71.67
45441;BME280;31189;38.790;-77.084;2023-09-18T09:46:21;100709.64;;;20.61;64.29
45441;BME280;31189;38.790;-77.084;2023-09-18T09:48:59;100707.46;;;19.63;66.86
45441;BME280;31189;38.790;-77.084;2023-09-18T09:51:17;100706.01;;;18.20;74.35
45441;BME280;31189;38.790;-77.084;2023-09-18T09:53:44;100703.84;;;20.59;65.27
45441;BME280;31189;38.790;-77.084;2023-09-18T09:56:04;100703.89;;;20.44;64.81
45441;BME280;31189;38.790;-77.084;2023-09-18T09:58:29;100699.81;;;21.90;60.21
45441;BME280;31189;38.790;-77.084;2023-09-18T10:00:58;100694.59;;;21.65;59.65
45441;BME280;31189;38.790;-77.084;2023-09-18T10:03:21;100695.85;;;21.29;59.37
45441;BME280;31189;38.790;-77.084;2023-09-18T10:05:47;100694.32;;;22.12;58.35
45441;BME280;31189;38.790;-77.084;2023-09-18T10:08:14;100697.80;;;21.61;60.64
45441;BME280;31189;38.790;-77.084;2023-09-18T10:10:39;100700.24;;;22.33;58.44
45441;BME280;31189;38.790;-77.084;2023-09-18T10:13:10;100700.23;;;22.11;57.54
45441;BME280;31189;38.790;-77.084;2023-09-18T10:15:29;100697.56;;;21.36;60.59
45441;BME280;31189;38.790;-77.084;2023-09-18T10:17:56;100700.96;;;21.11;61.87
45441;BME280;31189;38.790;-77.084;2023-09-18T10:20:21;100708.24;;;20.96;61.83
45441;BME280;31189;38.790;-77.084;2023-09-18T10:22:47;100711.35;;;20.59;64.20
45441;BME280;31189;38.790;-77.084;2023-09-18T10:25:13;100711.81;;;19.80;67.15
45441;BME280;31189;38.790;-77.084;2023-09-18T10:27:37;100702.69;;;20.60;64.13
45441;BME280;31189;38.790;-77.084;2023-09-18T10:30:02;100709.52;;;21.03;63.16
45441;BME280;31189;38.790;-77.084;2023-09-18T10:32:28;100713.27;;;20.97;62.61
45441;BME280;31189;38.790;-77.084;2023-09-18T10:34:53;100711.64;;;20.86;63.75
45441;BME280;31189;38.790;-77.084;2023-09-18T10:37:19;100707.10;;;21.71;59.62
45441;BME280;31189;38.790;-77.084;2023-09-18T10:39:46;100696.50;;;21.66;58.93
45441;BME280;31189;38.790;-77.084;2023-09-18T10:42:10;100692.21;;;21.38;60.13
45441;BME280;31189;38.790;-77.084;2023-09-18T10:44:36;100690.41;;;20.54;62.02
45441;BME280;31189;38.790;-77.084;2023-09-18T10:47:03;100698.36;;;20.31;64.73
45441;BME280;31189;38.790;-77.084;2023-09-18T10:49:27;100699.30;;;21.22;60.54
45441;BME280;31189;38.790;-77.084;2023-09-18T10:54:22;100687.96;;;21.59;60.55
45441;BME280;31189;38.790;-77.084;2023-09-18T10:56:44;100683.95;;;21.09;61.11
45441;BME280;31189;38.790;-77.084;2023-09-18T10:59:09;100680.24;;;21.79;59.43
45441;BME280;31189;38.790;-77.084;2023-09-18T11:01:35;100669.58;;;20.67;62.80
45441;BME280;31189;38.790;-77.084;2023-09-18T11:04:01;100672.25;;;21.24;61.55
45441;BME280;31189;38.790;-77.084;2023-09-18T11:06:26;100681.40;;;20.20;64.28
45441;BME280;31189;38.790;-77.084;2023-09-18T11:08:58;100688.00;;;21.03;62.73
45441;BME280;31189;38.790;-77.084;2023-09-18T11:11:19;100686.16;;;20.96;61.50
45441;BME280;31189;38.790;-77.084;2023-09-18T11:13:45;100681.18;;;21.48;60.75
45441;BME280;31189;38.790;-77.084;2023-09-18T11:16:17;100669.04;;;21.08;60.85
45441;BME280;31189;38.790;-77.084;2023-09-18T11:18:34;100660.78;;;20.58;62.01
45441;BME280;31189;38.790;-77.084;2023-09-18T11:21:09;100657.99;;;21.34;60.14
45441;BME280;31189;38.790;-77.084;2023-09-18T11:23:34;100661.49;;;21.53;59.23
45441;BME280;31189;38.790;-77.084;2023-09-18T11:25:53;100673.14;;;20.99;60.28
45441;BME280;31189;38.790;-77.084;2023-09-18T11:28:23;100673.43;;;20.83;60.13
45441;BME280;31189;38.790;-77.084;2023-09-18T11:30:50;100676.94;;;21.96;58.64
45441;BME280;31189;38.790;-77.084;2023-09-18T11:33:09;100671.10;;;21.25;60.45
45441;BME280;31189;38.790;-77.084;2023-09-18T11:35:33;100674.06;;;21.65;59.14
45441;BME280;31189;38.790;-77.084;2023-09-18T11:38:05;100674.78;;;20.26;62.71
45441;BME280;31189;38.790;-77.084;2023-09-18T11:40:29;100677.97;;;20.74;63.49
45441;BME280;31189;38.790;-77.084;2023-09-18T11:45:17;100699.01;;;18.93;68.74
45441;BME280;31189;38.790;-77.084;2023-09-18T11:47:42;100711.64;;;18.23;73.50
45441;BME280;31189;38.790;-77.084;2023-09-18T11:50:10;100708.63;;;19.02;72.06
45441;BME280;31189;38.790;-77.084;2023-09-18T11:52:32;100707.64;;;19.55;69.32
45441;BME280;31189;38.790;-77.084;2023-09-18T11:54:59;100704.50;;;20.69;63.48
45441;BME280;31189;38.790;-77.084;2023-09-18T11:57:24;100699.78;;;18.91;66.69
45441;BME280;31189;38.790;-77.084;2023-09-18T11:59:49;100698.06;;;19.65;66.35
45441;BME280;31189;38.790;-77.084;2023-09-18T12:02:25;100692.39;;;21.02;62.89
45441;BME280;31189;38.790;-77.084;2023-09-18T12:04:40;100691.07;;;21.49;60.70
45441;BME280;31189;38.790;-77.084;2023-09-18T12:07:06;100700.63;;;21.53;59.41
45441;BME280;31189;38.790;-77.084;2023-09-18T12:09:32;100705.74;;;20.90;60.83
45441;BME280;31189;38.790;-77.084;2023-09-18T12:11:58;100707.68;;;21.89;57.20
45441;BME280;31189;38.790;-77.084;2023-09-18T12:14:23;100704.74;;;22.34;56.87
45441;BME280;31189;38.790;-77.084;2023-09-18T12:16:50;100708.66;;;21.43;58.51
45441;BME280;31189;38.790;-77.084;2023-09-18T12:19:17;100708.07;;;20.53;60.85
45441;BME280;31189;38.790;-77.084;2023-09-18T12:21:41;100712.18;;;21.94;58.06
45441;BME280;31189;38.790;-77.084;2023-09-18T12:24:05;100713.32;;;21.90;58.01
45441;BME280;31189;38.790;-77.084;2023-09-18T12:26:31;100713.86;;;21.15;57.08
45441;BME280;31189;38.790;-77.084;2023-09-18T12:28:56;100714.17;;;21.22;59.61
45441;BME280;31189;38.790;-77.084;2023-09-18T12:31:22;100716.92;;;22.43;55.80
45441;BME280;31189;38.790;-77.084;2023-09-18T12:33:48;100717.70;;;21.33;57.68